Nichols, Minnesota
Current Conditions -  °F | °C
As of 10:11 AM on Thursday 27 Nov 2014 (Local Time) from KEVM Reporting Station
Clear Clear  
Wind Chill:   Ceiling: Unl
Heat Index:   Visibility: 10mi
Dew Point: -8°   Wind: 0mph
Humidity: 72%   Direction: NA
Pressure: 30.43"   Gusts: NA
Location:  47.4996°N, 92.6723°W
Report Text: KEVM 271611Z AUTO 00000KT 10SM CLR M18/M22 A3043 RMK AO2
Loading
Personal Weather Stations






























Interactive Weather Map New forecast layout! Learn more

10-Day Weather Forecast

Advertisements
Track Severe Weather on mobile